| Date | Time | Temp. (oF) | Dew Point (oF) | Rel. Hum. (%) | Press. (in.) | Wind Dir. | Wind Speed (mph) | Hourly Rainfall (in.) |
|
|---|---|---|---|---|---|---|---|---|---|
| 1 | 06/15 | 00:00 | 59 | 48 | 69 | 29.93 | SSW | 0 | 0.00 |
| 2 | 06/14 | 23:00 | 62 | 49 | 63 | 29.93 | S | 0 | 0.00 |
| 3 | 06/14 | 22:00 | 64 | 48 | 58 | 29.92 | S | 0 | 0.00 |
| 4 | 06/14 | 21:00 | 69 | 47 | 47 | 29.89 | SW | 0 | 0.00 |
| 5 | 06/14 | 20:00 | 74 | 46 | 38 | 29.88 | NNW | 0 | 0.00 |
| 6 | 06/14 | 19:00 | 77 | 46 | 34 | 29.87 | SSW | 4 | 0.00 |
| 7 | 06/14 | 18:00 | 75 | 45 | 35 | 29.86 | W | 0 | 0.00 |
| 8 | 06/14 | 17:00 | 76 | 46 | 36 | 29.87 | SW | 0 | 0.00 |
| 9 | 06/14 | 16:00 | 76 | 47 | 37 | 29.89 | NE | 0 | 0.00 |
| 10 | 06/14 | 15:00 | 75 | 45 | 36 | 29.90 | SSW | 3 | 0.00 |
| 11 | 06/14 | 14:00 | 74 | 43 | 34 | 29.90 | N | 4 | 0.00 |
| 12 | 06/14 | 13:00 | 73 | 44 | 36 | 29.91 | NE | 7 | 0.00 |
| 13 | 06/14 | 12:00 | 71 | 42 | 36 | 29.93 | NNE | 11 | 0.00 |
| 14 | 06/14 | 11:00 | 69 | 47 | 46 | 29.93 | ENE | 0 | 0.00 |
| 15 | 06/14 | 10:00 | 66 | 41 | 41 | 29.94 | NNE | 2 | 0.00 |
| 16 | 06/14 | 09:00 | 64 | 44 | 50 | 29.95 | N | 0 | 0.00 |
| 17 | 06/14 | 08:00 | 60 | 44 | 57 | 29.94 | W | 0 | 0.00 |
| 18 | 06/14 | 07:00 | 59 | 44 | 59 | 29.91 | NNE | 3 | 0.00 |
| 19 | 06/14 | 06:00 | 60 | 44 | 57 | 29.89 | NNE | 0 | 0.00 |
| 20 | 06/14 | 05:00 | 62 | 44 | 53 | 29.86 | N | 3 | 0.00 |
| 21 | 06/14 | 04:00 | 64 | 44 | 50 | 29.84 | NNE | 5 | 0.00 |
| 22 | 06/14 | 03:00 | 66 | 46 | 50 | 29.83 | NNE | 6 | 0.00 |
| 23 | 06/14 | 02:00 | 67 | 47 | 49 | 29.81 | N | 3 | 0.00 |
| 24 | 06/14 | 01:00 | 69 | 50 | 51 | 29.80 | NNE | 3 | 0.00 |